createdAt,value
2018-03-06T00:00:25.708Z,0
2018-03-06T00:01:24.571Z,0
2018-03-06T00:02:09.933Z,0
2018-03-06T00:03:11.004Z,0
2018-03-06T00:04:09.968Z,0
2018-03-06T00:05:10.012Z,0
2018-03-06T00:06:09.701Z,0
2018-03-06T00:07:12.016Z,0
2018-03-06T00:08:10.268Z,0
2018-03-06T00:09:10.033Z,0
2018-03-06T00:10:10.026Z,0
2018-03-06T00:11:11.565Z,0
2018-03-06T00:12:09.777Z,0
2018-03-06T00:13:10.074Z,0
2018-03-06T00:14:10.362Z,0
2018-03-06T00:15:11.700Z,0
2018-03-06T00:16:10.365Z,0
2018-03-06T00:17:10.382Z,0
2018-03-06T00:18:10.411Z,0
2018-03-06T00:19:12.870Z,0
2018-03-06T00:20:10.420Z,0
2018-03-06T00:21:09.924Z,0
2018-03-06T00:22:11.042Z,0
2018-03-06T00:23:10.473Z,0
2018-03-06T00:24:10.490Z,0
2018-03-06T00:25:25.193Z,0
2018-03-06T00:26:11.970Z,0
2018-03-06T00:27:10.535Z,0
2018-03-06T00:28:10.537Z,0
2018-03-06T00:29:13.137Z,0
2018-03-06T00:30:10.560Z,0
2018-03-06T00:31:10.314Z,0
2018-03-06T00:32:10.608Z,0
2018-03-06T00:33:12.094Z,0
2018-03-06T00:34:10.079Z,0
2018-03-06T00:35:10.364Z,0
2018-03-06T00:37:12.958Z,0
2018-03-06T00:38:10.386Z,0
2018-03-06T00:39:10.688Z,0
2018-03-06T00:40:10.405Z,0
2018-03-06T00:41:27.040Z,0
2018-03-06T00:42:25.106Z,0
2018-03-06T00:43:10.744Z,0
2018-03-06T00:44:27.039Z,0
2018-03-06T00:45:25.400Z,0
2018-03-06T00:46:10.776Z,0
2018-03-06T00:47:11.960Z,0
2018-03-06T00:48:10.800Z,0
2018-03-06T00:49:10.797Z,0
2018-03-06T00:50:12.340Z,0
2018-03-06T00:51:10.562Z,0
2018-03-06T00:52:10.565Z,0
2018-03-06T00:55:10.348Z,0
2018-03-06T00:56:10.616Z,0
2018-03-06T00:57:25.549Z,0
2018-03-06T00:58:25.566Z,0
2018-03-06T00:59:10.671Z,0
2018-03-06T01:00:10.396Z,0
2018-03-06T01:01:12.269Z,0
2018-03-06T01:02:10.690Z,0
2018-03-06T01:03:10.710Z,0
2018-03-06T01:04:12.412Z,0
2018-03-06T01:05:11.028Z,0
2018-03-06T01:06:10.745Z,0
2018-03-06T01:07:10.768Z,0
2018-03-06T01:08:13.052Z,0
2018-03-06T01:09:10.810Z,0
2018-03-06T01:10:11.095Z,0
2018-03-06T01:11:11.308Z,0
2018-03-06T01:12:26.338Z,0
2018-03-06T01:13:25.776Z,0
2018-03-06T01:14:11.098Z,0
2018-03-06T01:16:10.878Z,0
2018-03-06T01:17:10.878Z,0
2018-03-06T01:18:11.176Z,0
2018-03-06T01:19:12.384Z,0
2018-03-06T01:20:11.218Z,0
2018-03-06T01:21:10.942Z,0
2018-03-06T01:22:11.227Z,0
2018-03-06T01:23:12.354Z,0
2018-03-06T01:24:11.288Z,0
2018-03-06T01:25:10.704Z,0
2018-03-06T01:26:11.590Z,0
2018-03-06T01:27:11.009Z,0
2018-03-06T01:28:25.953Z,0
2018-03-06T01:29:12.847Z,0
2018-03-06T01:30:26.575Z,0
2018-03-06T01:31:11.081Z,0
2018-03-06T01:32:11.088Z,0
2018-03-06T01:33:11.820Z,0
2018-03-06T01:34:11.378Z,0
2018-03-06T01:36:13.543Z,0
2018-03-06T01:37:11.139Z,0
2018-03-06T01:38:11.435Z,0
2018-03-06T01:39:11.724Z,0
2018-03-06T01:40:11.441Z,0
2018-03-06T01:41:11.180Z,0
2018-03-06T01:42:13.177Z,0
2018-03-06T01:43:11.496Z,0
2018-03-06T01:44:11.516Z,0
2018-03-06T01:45:11.508Z,0
2018-03-06T01:46:12.957Z,0
2018-03-06T01:47:11.551Z,0
2018-03-06T01:48:11.613Z,0
2018-03-06T01:49:12.866Z,0
2018-03-06T01:50:11.313Z,0
2018-03-06T01:51:11.307Z,0
2018-03-06T01:52:13.237Z,0
2018-03-06T01:53:11.590Z,0
2018-03-06T01:54:11.625Z,0
2018-03-06T01:55:11.653Z,0
2018-03-06T01:56:13.683Z,0
2018-03-06T01:57:11.701Z,0
2018-03-06T01:59:14.805Z,0
2018-03-06T02:00:26.796Z,0
2018-03-06T02:01:25.815Z,0
2018-03-06T02:02:11.440Z,0
2018-03-06T02:03:12.936Z,0
2018-03-06T02:04:11.750Z,0
2018-03-06T02:05:11.781Z,0
2018-03-06T02:06:12.950Z,0
2018-03-06T02:07:11.776Z,0
2018-03-06T02:08:11.523Z,0
2018-03-06T02:09:11.547Z,0
2018-03-06T02:10:14.183Z,0
2018-03-06T02:11:11.576Z,0
2018-03-06T02:12:11.840Z,0
2018-03-06T02:13:12.251Z,0
2018-03-06T02:14:11.854Z,0
2018-03-06T02:15:11.875Z,0
2018-03-06T02:16:26.551Z,0
2018-03-06T02:17:14.261Z,0
2018-03-06T02:18:11.654Z,0
2018-03-06T02:19:11.978Z,0
2018-03-06T02:20:26.348Z,0
2018-03-06T02:21:13.372Z,0
2018-03-06T02:22:27.422Z,0
2018-03-06T02:23:11.722Z,0
2018-03-06T02:24:26.664Z,0
2018-03-06T02:25:12.417Z,0
2018-03-06T02:27:12.031Z,0
2018-03-06T02:28:13.460Z,0
2018-03-06T02:29:12.076Z,0
2018-03-06T02:30:11.796Z,0
2018-03-06T02:31:12.133Z,0
2018-03-06T02:32:27.551Z,0
2018-03-06T02:33:12.093Z,0
2018-03-06T02:34:12.109Z,0
2018-03-06T02:35:12.138Z,0
2018-03-06T02:36:12.272Z,0
2018-03-06T02:37:11.610Z,0
2018-03-06T02:38:26.807Z,0
2018-03-06T02:39:14.598Z,0
2018-03-06T02:40:12.211Z,0
2018-03-06T02:41:11.923Z,0
2018-03-06T02:42:11.934Z,0
2018-03-06T02:43:13.861Z,0
2018-03-06T02:44:12.231Z,0
2018-03-06T02:45:26.934Z,0
2018-03-06T02:46:13.522Z,0
2018-03-06T02:47:12.127Z,0
2018-03-06T02:48:26.655Z,0
2018-03-06T02:49:12.011Z,0
2018-03-06T02:50:12.556Z,0
2018-03-06T02:51:12.374Z,0
2018-03-06T02:52:12.330Z,0
2018-03-06T02:53:12.856Z,0
2018-03-06T02:54:12.375Z,0
2018-03-06T02:55:12.376Z,0
2018-03-06T02:56:12.406Z,0
2018-03-06T02:57:12.353Z,0
2018-03-06T02:58:11.856Z,0
2018-03-06T02:59:12.423Z,0
2018-03-06T03:00:28.154Z,0
2018-03-06T03:01:13.368Z,0
2018-03-06T03:02:12.199Z,0
2018-03-06T03:03:27.103Z,0
2018-03-06T03:04:13.161Z,0
2018-03-06T03:05:12.218Z,0
2018-03-06T03:06:11.956Z,0
2018-03-06T03:07:11.984Z,0
2018-03-06T03:08:13.950Z,0
2018-03-06T03:09:12.521Z,0
2018-03-06T03:10:12.279Z,0
2018-03-06T03:11:12.017Z,0
2018-03-06T03:12:13.237Z,0
2018-03-06T03:13:12.322Z,0
2018-03-06T03:14:27.290Z,0
2018-03-06T03:15:14.156Z,0
2018-03-06T03:16:12.346Z,0
2018-03-06T03:17:27.018Z,0
2018-03-06T03:18:12.380Z,0
2018-03-06T03:19:14.486Z,0
2018-03-06T03:20:12.398Z,0
2018-03-06T03:21:12.430Z,0
2018-03-06T03:22:12.428Z,0
2018-03-06T03:23:27.950Z,0
2018-03-06T03:25:12.487Z,0
2018-03-06T03:26:13.112Z,0
2018-03-06T03:27:12.207Z,0
2018-03-06T03:28:12.512Z,0
2018-03-06T03:29:15.540Z,0
2018-03-06T03:30:12.569Z,0
2018-03-06T03:31:12.298Z,0
2018-03-06T03:32:15.402Z,0
2018-03-06T03:34:27.537Z,0
2018-03-06T03:35:27.541Z,0
2018-03-06T03:36:12.593Z,0
2018-03-06T03:37:12.891Z,0
2018-03-06T03:38:12.341Z,0
2018-03-06T03:39:29.242Z,0
2018-03-06T03:40:12.892Z,0
2018-03-06T03:41:12.385Z,0
2018-03-06T03:42:15.078Z,0
2018-03-06T03:43:12.959Z,0
2018-03-06T03:44:12.979Z,0
2018-03-06T03:45:14.233Z,0
2018-03-06T03:46:12.986Z,0
2018-03-06T03:47:13.021Z,0
2018-03-06T03:48:15.668Z,0
2018-03-06T03:49:13.041Z,0
2018-03-06T03:50:12.751Z,0
2018-03-06T03:51:27.443Z,0
2018-03-06T03:52:13.073Z,0
2018-03-06T03:53:12.807Z,0
2018-03-06T03:54:12.543Z,0
2018-03-06T03:55:15.573Z,0
2018-03-06T03:56:27.754Z,0
2018-03-06T03:57:12.855Z,0
2018-03-06T03:58:15.599Z,0
2018-03-06T03:59:12.879Z,0
2018-03-06T04:00:12.873Z,0
2018-03-06T04:01:12.884Z,0
2018-03-06T04:02:14.423Z,0
2018-03-06T04:03:12.927Z,0
2018-03-06T04:04:13.263Z,0
2018-03-06T04:05:12.964Z,0
2018-03-06T04:06:12.972Z,0
2018-03-06T04:07:27.344Z,0
2018-03-06T04:08:12.975Z,0
2018-03-06T04:09:13.264Z,0
2018-03-06T04:10:14.555Z,0
2018-03-06T04:11:13.028Z,0
2018-03-06T04:13:13.335Z,0
2018-03-06T04:14:15.420Z,0
2018-03-06T04:15:13.060Z,0
2018-03-06T04:16:13.368Z,0
2018-03-06T04:17:28.320Z,0
2018-03-06T04:18:12.821Z,0
2018-03-06T04:19:13.128Z,0
2018-03-06T04:20:15.722Z,0
2018-03-06T04:21:13.143Z,0
2018-03-06T04:22:13.410Z,0
2018-03-06T04:23:28.093Z,0
2018-03-06T04:24:15.065Z,0
2018-03-06T04:25:13.179Z,0
2018-03-06T04:26:27.935Z,0
2018-03-06T04:27:15.857Z,0
2018-03-06T04:28:13.498Z,0
2018-03-06T04:29:13.219Z,0
2018-03-06T04:30:28.192Z,0
2018-03-06T04:31:15.751Z,0
2018-03-06T04:32:13.264Z,0
2018-03-06T04:33:13.548Z,0
2018-03-06T04:34:15.784Z,0
2018-03-06T04:35:28.226Z,0
2018-03-06T04:36:13.045Z,0
2018-03-06T04:37:16.119Z,0
2018-03-06T04:38:29.803Z,0
2018-03-06T04:39:13.346Z,0
2018-03-06T04:40:13.893Z,0
2018-03-06T04:41:14.254Z,0
2018-03-06T04:42:13.373Z,0
2018-03-06T04:43:13.662Z,0
2018-03-06T04:44:28.883Z,0
2018-03-06T04:45:13.716Z,0
2018-03-06T04:46:13.728Z,0
2018-03-06T04:49:13.465Z,0
2018-03-06T04:50:13.759Z,0
2018-03-06T04:51:16.351Z,0
2018-03-06T04:52:13.809Z,0
2018-03-06T04:55:15.975Z,0
2018-03-06T04:56:13.816Z,0
2018-03-06T04:57:13.867Z,0
2018-03-06T04:58:13.566Z,0
2018-03-06T04:59:15.591Z,0
2018-03-06T05:00:13.597Z,0
2018-03-06T05:01:13.910Z,0
2018-03-06T05:02:30.281Z,0
2018-03-06T05:03:13.901Z,0
2018-03-06T05:04:13.930Z,0
2018-03-06T05:05:28.568Z,0
2018-03-06T05:06:15.365Z,0
2018-03-06T05:07:13.947Z,4
2018-03-06T05:09:28.649Z,0
2018-03-06T05:10:28.358Z,4
2018-03-06T05:11:28.731Z,4
2018-03-06T05:12:14.024Z,4
2018-03-06T05:13:14.052Z,4
2018-03-06T05:14:13.801Z,4
2018-03-06T05:15:14.053Z,8
2018-03-06T05:16:15.207Z,12
2018-03-06T05:17:13.808Z,8
2018-03-06T05:18:14.073Z,12
2018-03-06T05:19:15.530Z,16
2018-03-06T05:20:13.821Z,20
2018-03-06T05:21:14.128Z,24
2018-03-06T05:22:14.120Z,24
2018-03-06T05:23:14.484Z,32
2018-03-06T05:24:14.164Z,36
2018-03-06T05:25:14.196Z,44
2018-03-06T05:26:28.835Z,52
2018-03-06T05:28:13.943Z,60
2018-03-06T05:29:13.934Z,72
2018-03-06T05:30:13.938Z,80
2018-03-06T05:31:15.374Z,92
2018-03-06T05:32:29.697Z,104
2018-03-06T05:33:14.256Z,116
2018-03-06T05:34:14.015Z,124
2018-03-06T05:35:29.587Z,140
2018-03-06T05:37:14.040Z,168
2018-03-06T05:38:14.851Z,184
2018-03-06T05:39:14.055Z,200
2018-03-06T05:40:14.324Z,216
2018-03-06T05:41:14.435Z,236
2018-03-06T05:42:28.741Z,264
2018-03-06T05:43:14.975Z,284
2018-03-06T05:44:14.119Z,308
2018-03-06T05:45:14.399Z,340
2018-03-06T05:46:13.864Z,372
2018-03-06T05:47:13.888Z,404
2018-03-06T05:48:14.259Z,444
2018-03-06T05:49:14.208Z,484
2018-03-06T05:50:16.898Z,528
2018-03-06T05:51:14.448Z,572
2018-03-06T05:52:14.467Z,624
2018-03-06T05:53:15.058Z,680
2018-03-06T05:54:15.501Z,740
2018-03-06T05:55:14.520Z,800
2018-03-06T05:56:14.260Z,868
2018-03-06T05:57:14.264Z,932
2018-03-06T05:58:30.762Z,1028
2018-03-06T06:00:14.579Z,1164
2018-03-06T06:01:14.844Z,1244
2018-03-06T06:02:15.372Z,1328
2018-03-06T06:03:29.255Z,1428
2018-03-06T06:04:14.352Z,1496
2018-03-06T06:05:15.854Z,1588
2018-03-06T06:06:14.379Z,1672
2018-03-06T06:07:14.391Z,1768
2018-03-06T06:08:14.693Z,1868
2018-03-06T06:09:29.334Z,1992
2018-03-06T06:10:15.851Z,2072
2018-03-06T06:11:14.710Z,2172
2018-03-06T06:12:14.722Z,2280
2018-03-06T06:13:29.382Z,2412
2018-03-06T06:14:29.100Z,2520
2018-03-06T06:15:14.709Z,2604
2018-03-06T06:16:14.717Z,2728
2018-03-06T06:17:29.408Z,2880
2018-03-06T06:19:14.769Z,3156
2018-03-06T06:20:14.779Z,3340
2018-03-06T06:21:14.848Z,3544
2018-03-06T06:23:14.808Z,3964
2018-03-06T06:24:14.343Z,4140
2018-03-06T06:25:14.828Z,4352
2018-03-06T06:26:14.579Z,4560
2018-03-06T06:27:14.594Z,4792
2018-03-06T06:28:14.873Z,4976
2018-03-06T06:29:29.566Z,5180
2018-03-06T06:30:14.628Z,5296
2018-03-06T06:31:29.565Z,5444
2018-03-06T06:32:14.921Z,5588
2018-03-06T06:33:14.922Z,5828
2018-03-06T06:35:14.435Z,6188
2018-03-06T06:36:15.009Z,6432
2018-03-06T06:37:14.718Z,6580
2018-03-06T06:38:14.985Z,6620
2018-03-06T06:40:14.757Z,6320
2018-03-06T06:41:29.695Z,6608
2018-03-06T06:42:14.785Z,6760
2018-03-06T06:43:14.804Z,6880
2018-03-06T06:44:14.808Z,7080
2018-03-06T06:45:29.756Z,7272
2018-03-06T06:46:14.838Z,7320
2018-03-06T06:47:29.880Z,7640
2018-03-06T06:48:14.861Z,7868
2018-03-06T06:49:14.619Z,8208
2018-03-06T06:50:14.891Z,8484
2018-03-06T06:51:15.172Z,8696
2018-03-06T06:52:15.167Z,9024
2018-03-06T06:53:15.185Z,9388
2018-03-06T06:54:15.199Z,9508
2018-03-06T06:55:15.261Z,9364
2018-03-06T06:56:15.226Z,9512
2018-03-06T06:57:15.243Z,9876
2018-03-06T06:59:15.263Z,10376
2018-03-06T07:00:29.947Z,10896
2018-03-06T07:01:29.972Z,11460
2018-03-06T07:02:14.798Z,11456
2018-03-06T07:03:14.816Z,11612
2018-03-06T07:04:15.343Z,11712
2018-03-06T07:05:15.096Z,12072
2018-03-06T07:06:15.361Z,12616
2018-03-06T07:07:14.867Z,12720
2018-03-06T07:08:15.138Z,13168
2018-03-06T07:09:15.404Z,13552
2018-03-06T07:10:14.927Z,13772
2018-03-06T07:11:15.543Z,14020
2018-03-06T07:12:15.454Z,14004
2018-03-06T07:13:15.563Z,14364
2018-03-06T07:14:15.484Z,14720
2018-03-06T07:15:15.244Z,14976
2018-03-06T07:16:15.515Z,15360
2018-03-06T07:18:30.210Z,14108
2018-03-06T07:19:15.563Z,14036
2018-03-06T07:20:15.574Z,14072
2018-03-06T07:21:15.380Z,15008
2018-03-06T07:23:15.647Z,14444
2018-03-06T07:24:15.642Z,15072
2018-03-06T07:25:15.648Z,15456
2018-03-06T07:26:15.409Z,15872
2018-03-06T07:27:30.357Z,15392
2018-03-06T07:28:15.704Z,14852
2018-03-06T07:29:15.458Z,14632
2018-03-06T07:30:15.214Z,15584
2018-03-06T07:31:15.749Z,14556
2018-03-06T07:32:15.766Z,14068
2018-03-06T07:33:30.446Z,14700
2018-03-06T07:34:15.796Z,15648
2018-03-06T07:35:15.819Z,16544
2018-03-06T07:36:15.605Z,17056
2018-03-06T07:37:15.581Z,17056
2018-03-06T07:38:15.914Z,16928
2018-03-06T07:39:15.361Z,16800
2018-03-06T07:40:30.568Z,16256
2018-03-06T07:41:15.899Z,16064
2018-03-06T07:42:15.663Z,15968
2018-03-06T07:43:15.424Z,15488
2018-03-06T07:45:15.974Z,13644
2018-03-06T07:46:15.984Z,13400
2018-03-06T07:47:15.488Z,13232
2018-03-06T07:48:30.427Z,13988
2018-03-06T07:49:16.030Z,14376
2018-03-06T07:50:16.044Z,15044
2018-03-06T07:52:15.826Z,16288
2018-03-06T07:53:15.838Z,17280
2018-03-06T07:55:16.131Z,18784
2018-03-06T07:56:15.891Z,18496
2018-03-06T07:57:15.976Z,17152
2018-03-06T07:58:15.663Z,17632
2018-03-06T08:00:16.220Z,19360
2018-03-06T08:02:15.987Z,21216
2018-03-06T08:03:16.059Z,21504
2018-03-06T08:04:16.282Z,21088
2018-03-06T08:05:16.296Z,21344
2018-03-06T08:06:16.047Z,21824
2018-03-06T08:07:16.323Z,22176
2018-03-06T08:08:16.340Z,18976
2018-03-06T08:09:16.361Z,20544
2018-03-06T08:10:16.372Z,21824
2018-03-06T08:11:16.400Z,21952
2018-03-06T08:12:16.411Z,21120
2018-03-06T08:13:16.165Z,20224
2018-03-06T08:14:16.444Z,19296
2018-03-06T08:15:16.460Z,19200
2018-03-06T08:16:16.482Z,20000
2018-03-06T08:17:16.599Z,20064
2018-03-06T08:18:16.505Z,19552
2018-03-06T08:20:30.955Z,19552
2018-03-06T08:21:30.967Z,19744
2018-03-06T08:22:30.988Z,20448
2018-03-06T08:23:16.596Z,20096
2018-03-06T08:24:16.630Z,19616
2018-03-06T08:25:16.378Z,20000
2018-03-06T08:26:16.137Z,19872
2018-03-06T08:27:16.675Z,19648
2018-03-06T08:28:16.686Z,20288
2018-03-06T08:29:16.702Z,20448
2018-03-06T08:30:16.826Z,20128
2018-03-06T08:31:16.732Z,19104
2018-03-06T08:32:16.495Z,18016
2018-03-06T08:33:31.440Z,17440
2018-03-06T08:34:16.529Z,17280
2018-03-06T08:35:16.812Z,17280
2018-03-06T08:36:31.486Z,17536
2018-03-06T08:37:16.589Z,17504
2018-03-06T08:38:16.598Z,17536
2018-03-06T08:39:31.283Z,17632
2018-03-06T08:40:16.892Z,16960
2018-03-06T08:41:16.904Z,16928
2018-03-06T08:42:16.931Z,16672
2018-03-06T08:43:16.951Z,16352
2018-03-06T08:44:16.960Z,15508
2018-03-06T08:45:16.718Z,15412
2018-03-06T08:47:16.757Z,14700
2018-03-06T08:48:17.033Z,14736
2018-03-06T08:49:17.048Z,14500
2018-03-06T08:50:17.067Z,14260
2018-03-06T08:51:17.136Z,13880
2018-03-06T08:52:31.516Z,13628
2018-03-06T08:53:17.118Z,13604
2018-03-06T08:54:31.805Z,13328
2018-03-06T08:55:17.153Z,13512
2018-03-06T08:56:31.840Z,13748
2018-03-06T08:57:16.982Z,13924
2018-03-06T08:58:17.209Z,14220
2018-03-06T08:59:17.881Z,14396
2018-03-06T09:00:16.989Z,14140
2018-03-06T09:01:17.287Z,13812
2018-03-06T09:02:17.280Z,13568
2018-03-06T09:03:17.296Z,13692
2018-03-06T09:04:16.804Z,13644
2018-03-06T09:05:17.083Z,13500
2018-03-06T09:06:17.098Z,13188
2018-03-06T09:07:31.785Z,13156
2018-03-06T09:08:32.055Z,13452
2018-03-06T09:09:17.404Z,13392
2018-03-06T09:10:32.091Z,13048
2018-03-06T09:11:17.444Z,13112
2018-03-06T09:12:17.606Z,13408
2018-03-06T09:13:17.228Z,12564
2018-03-06T09:14:17.241Z,12928
2018-03-06T09:15:17.518Z,12808
2018-03-06T09:16:17.535Z,13092
2018-03-06T09:17:17.307Z,13044
2018-03-06T09:18:17.310Z,13060
2018-03-06T09:19:32.262Z,12852
2018-03-06T09:20:17.608Z,12648
2018-03-06T09:22:17.654Z,12660
2018-03-06T09:23:32.325Z,12948
2018-03-06T09:24:17.679Z,12968
2018-03-06T09:25:32.363Z,13268
2018-03-06T09:26:17.727Z,13332
2018-03-06T09:27:17.735Z,12484
2018-03-06T09:28:17.753Z,12108
2018-03-06T09:29:17.773Z,12344
2018-03-06T09:30:17.534Z,12052
2018-03-06T09:31:17.856Z,11948
2018-03-06T09:32:17.579Z,12068
2018-03-06T09:33:17.844Z,11964
2018-03-06T09:34:17.856Z,11920
2018-03-06T09:35:17.621Z,11796
2018-03-06T09:37:17.910Z,11152
2018-03-06T09:38:17.678Z,10692
2018-03-06T09:39:17.702Z,10448
2018-03-06T09:40:17.974Z,10508
2018-03-06T09:41:17.732Z,10560
2018-03-06T09:42:18.008Z,10604
2018-03-06T09:43:17.766Z,10636
2018-03-06T09:44:18.049Z,10684
2018-03-06T09:45:17.805Z,10796
2018-03-06T09:46:32.804Z,10892
2018-03-06T09:47:17.841Z,11028
2018-03-06T09:48:18.111Z,10936
2018-03-06T09:49:18.233Z,11108
2018-03-06T09:50:17.900Z,11208
2018-03-06T09:52:17.962Z,11496
2018-03-06T09:53:18.208Z,11636
2018-03-06T09:54:32.892Z,11808
2018-03-06T09:55:32.912Z,11884
2018-03-06T09:56:32.928Z,12012
2018-03-06T09:57:18.290Z,12120
2018-03-06T09:58:18.041Z,12124
2018-03-06T09:59:18.057Z,12328
2018-03-06T10:00:18.337Z,12272
2018-03-06T10:02:18.117Z,12300
2018-03-06T10:03:18.387Z,12292
2018-03-06T10:04:18.403Z,12276
2018-03-06T10:05:18.422Z,12252
2018-03-06T10:06:17.931Z,12156
2018-03-06T10:07:17.952Z,12048
2018-03-06T10:08:18.560Z,12080
2018-03-06T10:09:18.494Z,11880
2018-03-06T10:10:18.260Z,11444
2018-03-06T10:11:33.201Z,10952
2018-03-06T10:12:18.294Z,10804
2018-03-06T10:13:18.565Z,10652
2018-03-06T10:14:18.339Z,10492
2018-03-06T10:15:18.608Z,10480
2018-03-06T10:16:18.723Z,10548
2018-03-06T10:17:18.654Z,10572
2018-03-06T10:18:18.664Z,10616
2018-03-06T10:19:18.427Z,10600
2018-03-06T10:20:18.448Z,10444
2018-03-06T10:21:18.727Z,10356
2018-03-06T10:22:18.484Z,10288
2018-03-06T10:23:18.501Z,10272
2018-03-06T10:24:18.523Z,10212
2018-03-06T10:25:18.793Z,10176
2018-03-06T10:26:18.810Z,10224
2018-03-06T10:27:33.507Z,10344
2018-03-06T10:28:18.603Z,10376
2018-03-06T10:29:18.876Z,10380
2018-03-06T10:30:18.641Z,10332
2018-03-06T10:31:18.999Z,10276
2018-03-06T10:32:18.925Z,10252
2018-03-06T10:33:18.438Z,10248
2018-03-06T10:34:18.963Z,10220
2018-03-06T10:36:18.998Z,10224
2018-03-06T10:37:19.018Z,10224
2018-03-06T10:40:18.563Z,10168
2018-03-06T10:41:18.592Z,10184
2018-03-06T10:42:18.855Z,10196
2018-03-06T10:43:33.807Z,10208
2018-03-06T10:44:19.152Z,10220
2018-03-06T10:45:33.836Z,10224
2018-03-06T10:46:19.192Z,10200
2018-03-06T10:47:19.050Z,10200
2018-03-06T10:48:18.967Z,10236
2018-03-06T10:49:18.994Z,10300
2018-03-06T10:50:19.260Z,10352
2018-03-06T10:51:19.280Z,10428
2018-03-06T10:52:19.045Z,10532
2018-03-06T10:53:19.410Z,10616
2018-03-06T10:54:19.080Z,10624
2018-03-06T10:55:19.476Z,10656
2018-03-06T10:56:19.375Z,10716
2018-03-06T10:57:19.133Z,10728
2018-03-06T10:58:33.570Z,10732
2018-03-06T10:59:19.225Z,10704
2018-03-06T11:00:19.448Z,10636
2018-03-06T11:02:19.605Z,10592
2018-03-06T11:03:18.995Z,10576
2018-03-06T11:04:19.291Z,10528
2018-03-06T11:05:19.541Z,10464
2018-03-06T11:06:19.560Z,10364
2018-03-06T11:07:19.327Z,10288
2018-03-06T11:08:19.854Z,10216
2018-03-06T11:10:19.639Z,10112
2018-03-06T11:11:19.445Z,10052
2018-03-06T11:12:19.673Z,10080
2018-03-06T11:13:19.692Z,10084
2018-03-06T11:14:34.124Z,10096
2018-03-06T11:15:19.729Z,10092
2018-03-06T11:16:19.512Z,10028
2018-03-06T11:17:19.770Z,9984
2018-03-06T11:19:19.551Z,9928
2018-03-06T11:20:19.569Z,9920
2018-03-06T11:21:19.850Z,9900
2018-03-06T11:23:19.892Z,9856
2018-03-06T11:24:19.918Z,9824
2018-03-06T11:26:19.679Z,9764
2018-03-06T11:27:19.966Z,9740
2018-03-06T11:29:19.740Z,9688
2018-03-06T11:30:34.685Z,9632
2018-03-06T11:31:20.032Z,9592
2018-03-06T11:32:20.053Z,9556
2018-03-06T11:33:34.734Z,9496
2018-03-06T11:34:34.760Z,9444
2018-03-06T11:35:20.107Z,9412
2018-03-06T11:36:20.135Z,9368
2018-03-06T11:37:20.145Z,9332
2018-03-06T11:39:19.924Z,9308
2018-03-06T11:40:20.207Z,9252
2018-03-06T11:41:20.222Z,9264
2018-03-06T11:42:20.266Z,9280
2018-03-06T11:44:20.285Z,9296
2018-03-06T11:46:34.984Z,9276
2018-03-06T11:47:20.083Z,9272
2018-03-06T11:48:35.020Z,9276
2018-03-06T11:49:20.369Z,9284
2018-03-06T11:50:35.057Z,9300
2018-03-06T11:51:20.408Z,9312
2018-03-06T11:52:20.175Z,9296
2018-03-06T11:53:20.193Z,9264
2018-03-06T11:54:20.471Z,9208
2018-03-06T11:55:35.162Z,9172
2018-03-06T11:56:20.503Z,9148
2018-03-06T11:57:20.526Z,9108
2018-03-06T11:58:20.539Z,9076
2018-03-06T11:59:35.232Z,9008
2018-03-06T12:00:20.584Z,8984
2018-03-06T12:01:20.344Z,8948
2018-03-06T12:02:35.295Z,8904
2018-03-06T12:03:35.306Z,8876
2018-03-06T12:04:35.322Z,8868
2018-03-06T12:05:20.672Z,8884
2018-03-06T12:06:20.437Z,8884
2018-03-06T12:07:20.786Z,8860
2018-03-06T12:08:20.486Z,8828
2018-03-06T12:09:20.752Z,8812
2018-03-06T12:10:20.513Z,8800
2018-03-06T12:11:20.539Z,8780
2018-03-06T12:12:20.613Z,8756
2018-03-06T12:13:20.821Z,8716
2018-03-06T12:14:20.600Z,8652
2018-03-06T12:15:20.613Z,8576
2018-03-06T12:16:35.600Z,8452
2018-03-06T12:17:20.897Z,8372
2018-03-06T12:19:20.946Z,8136
2018-03-06T12:20:21.006Z,8008
2018-03-06T12:21:20.976Z,7908
2018-03-06T12:22:20.747Z,7824
2018-03-06T12:23:21.016Z,7744
2018-03-06T12:24:20.782Z,7672
2018-03-06T12:25:20.797Z,7608
2018-03-06T12:26:20.815Z,7556
2018-03-06T12:27:21.094Z,7524
2018-03-06T12:28:21.114Z,7480
2018-03-06T12:29:21.128Z,7468
2018-03-06T12:30:21.146Z,7468
2018-03-06T12:31:21.176Z,7476
2018-03-06T12:32:21.185Z,7492
2018-03-06T12:33:35.874Z,7512
2018-03-06T12:34:35.641Z,7500
2018-03-06T12:35:35.917Z,7512
2018-03-06T12:36:35.929Z,7488
2018-03-06T12:37:21.281Z,7476
2018-03-06T12:38:21.301Z,7464
2018-03-06T12:39:35.743Z,7456
2018-03-06T12:40:21.340Z,7456
2018-03-06T12:41:21.356Z,7460
2018-03-06T12:42:21.384Z,7464
2018-03-06T12:43:21.400Z,7468
2018-03-06T12:44:21.412Z,7496
2018-03-06T12:47:21.220Z,7616
2018-03-06T12:49:35.664Z,7752
2018-03-06T12:50:21.268Z,7804
2018-03-06T12:51:21.551Z,7868
2018-03-06T12:52:21.317Z,7920
2018-03-06T12:53:21.086Z,7972
2018-03-06T12:54:21.604Z,8008
2018-03-06T12:56:21.641Z,8060
2018-03-06T12:57:21.672Z,8080
2018-03-06T12:58:21.673Z,8096
2018-03-06T12:59:21.701Z,8128
2018-03-06T13:00:21.457Z,8152
2018-03-06T13:01:21.744Z,8168
2018-03-06T13:02:21.501Z,8164
2018-03-06T13:03:21.770Z,8148
2018-03-06T13:05:36.476Z,8028
2018-03-06T13:06:21.575Z,8024
2018-03-06T13:07:21.080Z,8048
2018-03-06T13:08:21.869Z,8072
2018-03-06T13:09:21.884Z,8096
2018-03-06T13:10:36.567Z,8064
2018-03-06T13:11:21.919Z,8048
2018-03-06T13:12:36.656Z,8036
2018-03-06T13:13:21.971Z,8020
2018-03-06T13:14:21.720Z,7984
2018-03-06T13:15:21.484Z,7952
2018-03-06T13:16:21.764Z,7916
2018-03-06T13:17:22.033Z,7892
2018-03-06T13:18:21.793Z,7880
2018-03-06T13:19:36.743Z,7804
2018-03-06T13:20:22.089Z,7740
2018-03-06T13:21:36.787Z,7640
2018-03-06T13:22:36.800Z,7576
2018-03-06T13:23:36.557Z,7536
2018-03-06T13:24:22.166Z,7508
2018-03-06T13:25:22.181Z,7464
2018-03-06T13:26:22.208Z,7388
2018-03-06T13:27:22.224Z,7300
2018-03-06T13:28:22.238Z,7204
2018-03-06T13:29:22.256Z,7148
2018-03-06T13:31:22.298Z,7100
2018-03-06T13:33:22.429Z,7060
2018-03-06T13:34:22.099Z,7000
2018-03-06T13:35:21.858Z,6904
2018-03-06T13:36:22.389Z,6888
2018-03-06T13:37:37.075Z,6844
2018-03-06T13:38:22.436Z,6800
2018-03-06T13:39:22.196Z,6736
2018-03-06T13:40:22.466Z,6656
2018-03-06T13:41:22.227Z,6576
2018-03-06T13:42:22.246Z,6508
2018-03-06T13:43:22.260Z,6412
2018-03-06T13:44:22.541Z,6312
2018-03-06T13:45:22.557Z,6212
2018-03-06T13:46:22.583Z,6108
2018-03-06T13:47:22.352Z,6008
2018-03-06T13:48:22.617Z,5896
2018-03-06T13:49:22.131Z,5800
2018-03-06T13:50:22.401Z,5704
2018-03-06T13:51:22.673Z,5608
2018-03-06T13:52:22.636Z,5520
2018-03-06T13:53:37.375Z,5404
2018-03-06T13:54:37.395Z,5340
2018-03-06T13:55:22.749Z,5308
2018-03-06T13:56:22.511Z,5276
2018-03-06T13:58:22.544Z,5292
2018-03-06T13:59:22.820Z,5272
2018-03-06T14:00:22.583Z,5228
2018-03-06T14:01:22.859Z,5184
2018-03-06T14:02:22.629Z,5152
2018-03-06T14:04:22.664Z,5128
2018-03-06T14:05:22.940Z,5104
2018-03-06T14:06:22.958Z,5048
2018-03-06T14:07:22.970Z,5052
2018-03-06T14:08:37.654Z,5052
2018-03-06T14:09:23.002Z,5032
2018-03-06T14:10:23.019Z,4980
2018-03-06T14:11:37.706Z,4940
2018-03-06T14:12:22.802Z,4932
2018-03-06T14:13:23.141Z,4888
2018-03-06T14:14:22.851Z,4828
2018-03-06T14:15:23.124Z,4800
2018-03-06T14:16:22.876Z,4788
2018-03-06T14:17:23.155Z,4760
2018-03-06T14:18:23.162Z,4696
2018-03-06T14:19:23.186Z,4648
2018-03-06T14:20:22.954Z,4608
2018-03-06T14:21:23.223Z,4552
2018-03-06T14:23:37.929Z,4356
2018-03-06T14:24:37.943Z,4244
2018-03-06T14:25:23.038Z,4152
2018-03-06T14:26:23.333Z,4024
2018-03-06T14:27:23.342Z,3924
2018-03-06T14:28:23.096Z,3840
2018-03-06T14:29:23.365Z,3768
2018-03-06T14:30:23.124Z,3704
2018-03-06T14:31:23.418Z,3640
2018-03-06T14:32:23.450Z,3588
2018-03-06T14:33:23.432Z,3548
2018-03-06T14:34:23.207Z,3520
2018-03-06T14:35:23.468Z,3500
2018-03-06T14:36:23.493Z,3496
2018-03-06T14:37:23.516Z,3500
2018-03-06T14:38:23.523Z,3516
2018-03-06T14:39:23.282Z,3540
2018-03-06T14:40:38.223Z,3556
2018-03-06T14:41:23.317Z,3568